sensor_id;sensor_type;location;lat;lon;timestamp;temperature;humidity
3713;DHT22;1872;51.406;6.856;2022-10-17T00:01:02;15.00;99.90
3713;DHT22;1872;51.406;6.856;2022-10-17T00:03:28;15.00;99.90
3713;DHT22;1872;51.406;6.856;2022-10-17T00:05:54;15.00;99.90
3713;DHT22;1872;51.406;6.856;2022-10-17T00:08:19;15.00;99.90
3713;DHT22;1872;51.406;6.856;2022-10-17T00:10:55;15.00;99.90
3713;DHT22;1872;51.406;6.856;2022-10-17T00:13:21;15.00;99.90
3713;DHT22;1872;51.406;6.856;2022-10-17T00:15:46;15.00;99.90
3713;DHT22;1872;51.406;6.856;2022-10-17T00:18:12;15.00;99.90
3713;DHT22;1872;51.406;6.856;2022-10-17T00:20:37;15.00;99.90
3713;DHT22;1872;51.406;6.856;2022-10-17T00:23:03;15.00;99.90
3713;DHT22;1872;51.406;6.856;2022-10-17T00:25:28;15.00;99.90
3713;DHT22;1872;51.406;6.856;2022-10-17T00:27:55;15.00;99.90
3713;DHT22;1872;51.406;6.856;2022-10-17T00:30:21;15.00;99.90
3713;DHT22;1872;51.406;6.856;2022-10-17T00:32:46;14.90;99.90
3713;DHT22;1872;51.406;6.856;2022-10-17T00:35:12;15.00;99.90
3713;DHT22;1872;51.406;6.856;2022-10-17T00:37:38;14.90;99.90
3713;DHT22;1872;51.406;6.856;2022-10-17T00:40:04;15.00;99.90
3713;DHT22;1872;51.406;6.856;2022-10-17T00:42:30;15.00;99.90
3713;DHT22;1872;51.406;6.856;2022-10-17T00:45:19;15.00;99.90
3713;DHT22;1872;51.406;6.856;2022-10-17T00:47:49;15.10;99.90
3713;DHT22;1872;51.406;6.856;2022-10-17T00:50:16;15.10;99.90
3713;DHT22;1872;51.406;6.856;2022-10-17T00:52:43;15.10;99.90
3713;DHT22;1872;51.406;6.856;2022-10-17T00:55:20;15.10;99.90
3713;DHT22;1872;51.406;6.856;2022-10-17T00:57:47;15.20;99.90
3713;DHT22;1872;51.406;6.856;2022-10-17T01:00:14;15.20;99.90
3713;DHT22;1872;51.406;6.856;2022-10-17T01:02:40;15.20;99.90
3713;DHT22;1872;51.406;6.856;2022-10-17T01:05:07;15.20;99.90
3713;DHT22;1872;51.406;6.856;2022-10-17T01:07:36;15.20;99.90
3713;DHT22;1872;51.406;6.856;2022-10-17T01:10:02;15.20;99.90
3713;DHT22;1872;51.406;6.856;2022-10-17T01:15:26;15.20;99.90
3713;DHT22;1872;51.406;6.856;2022-10-17T01:18:14;15.20;99.90
3713;DHT22;1872;51.406;6.856;2022-10-17T01:24:13;15.30;99.90
3713;DHT22;1872;51.406;6.856;2022-10-17T01:26:56;15.30;99.90
3713;DHT22;1872;51.406;6.856;2022-10-17T01:35:19;15.40;99.90
3713;DHT22;1872;51.406;6.856;2022-10-17T01:37:55;15.40;99.90
3713;DHT22;1872;51.406;6.856;2022-10-17T01:40:31;15.40;99.90
3713;DHT22;1872;51.406;6.856;2022-10-17T01:43:06;15.40;99.90
3713;DHT22;1872;51.406;6.856;2022-10-17T01:48:43;15.40;99.90
3713;DHT22;1872;51.406;6.856;2022-10-17T01:51:26;15.50;99.90
3713;DHT22;1872;51.406;6.856;2022-10-17T01:54:16;15.50;99.90
3713;DHT22;1872;51.406;6.856;2022-10-17T01:56:45;15.50;99.90
3713;DHT22;1872;51.406;6.856;2022-10-17T01:59:22;15.60;99.90
3713;DHT22;1872;51.406;6.856;2022-10-17T02:01:52;15.60;99.90
3713;DHT22;1872;51.406;6.856;2022-10-17T02:04:18;15.60;99.90
3713;DHT22;1872;51.406;6.856;2022-10-17T02:06:44;15.60;99.90
3713;DHT22;1872;51.406;6.856;2022-10-17T02:09:22;15.70;99.90
3713;DHT22;1872;51.406;6.856;2022-10-17T02:12:14;15.70;99.90
3713;DHT22;1872;51.406;6.856;2022-10-17T02:17:26;15.60;99.90
3713;DHT22;1872;51.406;6.856;2022-10-17T02:26:02;15.70;99.90
3713;DHT22;1872;51.406;6.856;2022-10-17T02:28:18;15.70;99.90
3713;DHT22;1872;51.406;6.856;2022-10-17T02:30:54;15.60;99.90
3713;DHT22;1872;51.406;6.856;2022-10-17T02:33:30;15.60;99.90
3713;DHT22;1872;51.406;6.856;2022-10-17T02:36:02;15.60;99.90
3713;DHT22;1872;51.406;6.856;2022-10-17T02:38:30;15.60;99.90
3713;DHT22;1872;51.406;6.856;2022-10-17T02:40:56;15.60;99.90
3713;DHT22;1872;51.406;6.856;2022-10-17T02:43:23;15.60;99.90
3713;DHT22;1872;51.406;6.856;2022-10-17T02:45:49;15.60;99.90
3713;DHT22;1872;51.406;6.856;2022-10-17T02:51:11;15.60;99.90
3713;DHT22;1872;51.406;6.856;2022-10-17T02:56:13;15.50;99.90
3713;DHT22;1872;51.406;6.856;2022-10-17T02:58:39;15.50;99.90
3713;DHT22;1872;51.406;6.856;2022-10-17T03:01:06;15.60;99.90
3713;DHT22;1872;51.406;6.856;2022-10-17T03:03:32;15.60;99.90
3713;DHT22;1872;51.406;6.856;2022-10-17T03:05:57;15.50;99.90
3713;DHT22;1872;51.406;6.856;2022-10-17T03:08:23;15.60;99.90
3713;DHT22;1872;51.406;6.856;2022-10-17T03:10:50;15.60;99.90
3713;DHT22;1872;51.406;6.856;2022-10-17T03:13:16;15.60;99.90
3713;DHT22;1872;51.406;6.856;2022-10-17T03:15:41;15.70;99.90
3713;DHT22;1872;51.406;6.856;2022-10-17T03:18:07;15.70;99.90
3713;DHT22;1872;51.406;6.856;2022-10-17T03:20:33;15.80;99.90
3713;DHT22;1872;51.406;6.856;2022-10-17T03:22:59;15.90;99.90
3713;DHT22;1872;51.406;6.856;2022-10-17T03:25:24;15.90;99.90
3713;DHT22;1872;51.406;6.856;2022-10-17T03:27:50;15.90;99.90
3713;DHT22;1872;51.406;6.856;2022-10-17T03:30:17;16.00;99.90
3713;DHT22;1872;51.406;6.856;2022-10-17T03:32:43;16.00;99.90
3713;DHT22;1872;51.406;6.856;2022-10-17T03:35:09;16.00;99.90
3713;DHT22;1872;51.406;6.856;2022-10-17T03:37:34;16.10;99.90
3713;DHT22;1872;51.406;6.856;2022-10-17T03:40:00;16.00;99.90
3713;DHT22;1872;51.406;6.856;2022-10-17T03:42:26;16.00;99.90
3713;DHT22;1872;51.406;6.856;2022-10-17T03:44:51;16.00;99.90
3713;DHT22;1872;51.406;6.856;2022-10-17T03:47:17;16.00;99.90
3713;DHT22;1872;51.406;6.856;2022-10-17T03:49:42;16.00;99.90
3713;DHT22;1872;51.406;6.856;2022-10-17T03:52:12;16.00;99.90
3713;DHT22;1872;51.406;6.856;2022-10-17T03:54:38;16.00;99.90
3713;DHT22;1872;51.406;6.856;2022-10-17T03:57:04;16.00;99.90
3713;DHT22;1872;51.406;6.856;2022-10-17T03:59:29;16.00;99.90
3713;DHT22;1872;51.406;6.856;2022-10-17T04:01:55;15.90;99.90
3713;DHT22;1872;51.406;6.856;2022-10-17T04:04:21;15.90;99.90
3713;DHT22;1872;51.406;6.856;2022-10-17T04:06:46;15.90;99.90
3713;DHT22;1872;51.406;6.856;2022-10-17T04:09:12;15.90;99.90
3713;DHT22;1872;51.406;6.856;2022-10-17T04:11:38;15.90;99.90
3713;DHT22;1872;51.406;6.856;2022-10-17T04:14:04;15.90;99.90
3713;DHT22;1872;51.406;6.856;2022-10-17T04:16:29;15.90;99.90
3713;DHT22;1872;51.406;6.856;2022-10-17T04:18:57;15.80;99.90
3713;DHT22;1872;51.406;6.856;2022-10-17T04:21:24;15.80;99.90
3713;DHT22;1872;51.406;6.856;2022-10-17T04:23:55;15.80;99.90
3713;DHT22;1872;51.406;6.856;2022-10-17T04:26:21;15.80;99.90
3713;DHT22;1872;51.406;6.856;2022-10-17T04:28:47;15.90;99.90
3713;DHT22;1872;51.406;6.856;2022-10-17T04:31:13;15.90;99.90
3713;DHT22;1872;51.406;6.856;2022-10-17T04:33:39;15.90;99.90
3713;DHT22;1872;51.406;6.856;2022-10-17T04:36:09;16.00;99.90
3713;DHT22;1872;51.406;6.856;2022-10-17T04:38:35;16.00;99.90
3713;DHT22;1872;51.406;6.856;2022-10-17T04:41:05;16.10;99.90
3713;DHT22;1872;51.406;6.856;2022-10-17T04:43:36;16.10;99.90
3713;DHT22;1872;51.406;6.856;2022-10-17T04:46:05;16.10;99.90
3713;DHT22;1872;51.406;6.856;2022-10-17T04:48:31;16.10;99.90
3713;DHT22;1872;51.406;6.856;2022-10-17T04:50:59;16.20;99.90
3713;DHT22;1872;51.406;6.856;2022-10-17T04:53:26;16.20;99.90
3713;DHT22;1872;51.406;6.856;2022-10-17T04:55:52;16.20;99.90
3713;DHT22;1872;51.406;6.856;2022-10-17T04:58:18;16.20;99.90
3713;DHT22;1872;51.406;6.856;2022-10-17T05:00:44;16.30;99.90
3713;DHT22;1872;51.406;6.856;2022-10-17T05:03:10;16.30;99.90
3713;DHT22;1872;51.406;6.856;2022-10-17T05:05:37;16.30;99.90
3713;DHT22;1872;51.406;6.856;2022-10-17T05:08:03;16.30;99.90
3713;DHT22;1872;51.406;6.856;2022-10-17T05:10:29;16.30;99.90
3713;DHT22;1872;51.406;6.856;2022-10-17T05:12:55;16.30;99.90
3713;DHT22;1872;51.406;6.856;2022-10-17T05:15:20;16.40;99.90
3713;DHT22;1872;51.406;6.856;2022-10-17T05:17:46;16.40;99.90
3713;DHT22;1872;51.406;6.856;2022-10-17T05:20:11;16.40;99.90
3713;DHT22;1872;51.406;6.856;2022-10-17T05:22:37;16.40;99.90
3713;DHT22;1872;51.406;6.856;2022-10-17T05:25:04;16.50;99.90
3713;DHT22;1872;51.406;6.856;2022-10-17T05:27:29;16.40;99.90
3713;DHT22;1872;51.406;6.856;2022-10-17T05:29:55;16.40;99.90
3713;DHT22;1872;51.406;6.856;2022-10-17T05:32:21;16.40;99.90
3713;DHT22;1872;51.406;6.856;2022-10-17T05:34:46;16.40;99.90
3713;DHT22;1872;51.406;6.856;2022-10-17T05:37:12;16.50;99.90
3713;DHT22;1872;51.406;6.856;2022-10-17T05:39:38;16.50;99.90
3713;DHT22;1872;51.406;6.856;2022-10-17T05:42:03;16.50;99.90
3713;DHT22;1872;51.406;6.856;2022-10-17T05:44:29;16.50;99.90
3713;DHT22;1872;51.406;6.856;2022-10-17T05:46:54;16.40;99.90
3713;DHT22;1872;51.406;6.856;2022-10-17T05:49:20;16.40;99.90
3713;DHT22;1872;51.406;6.856;2022-10-17T05:51:46;16.40;99.90
3713;DHT22;1872;51.406;6.856;2022-10-17T05:54:11;16.30;99.90
3713;DHT22;1872;51.406;6.856;2022-10-17T05:56:37;16.30;99.90
3713;DHT22;1872;51.406;6.856;2022-10-17T05:59:04;16.30;99.90
3713;DHT22;1872;51.406;6.856;2022-10-17T06:01:29;16.30;99.90
3713;DHT22;1872;51.406;6.856;2022-10-17T06:03:55;16.30;99.90
3713;DHT22;1872;51.406;6.856;2022-10-17T06:06:21;16.30;99.90
3713;DHT22;1872;51.406;6.856;2022-10-17T06:08:47;16.30;99.90
3713;DHT22;1872;51.406;6.856;2022-10-17T06:11:13;16.30;99.90
3713;DHT22;1872;51.406;6.856;2022-10-17T06:13:39;16.30;99.90
3713;DHT22;1872;51.406;6.856;2022-10-17T06:16:05;16.30;99.90
3713;DHT22;1872;51.406;6.856;2022-10-17T06:18:31;16.30;99.90
3713;DHT22;1872;51.406;6.856;2022-10-17T06:21:06;16.30;99.90
3713;DHT22;1872;51.406;6.856;2022-10-17T06:23:32;16.30;99.90
3713;DHT22;1872;51.406;6.856;2022-10-17T06:25:59;16.30;99.90
3713;DHT22;1872;51.406;6.856;2022-10-17T06:28:26;16.30;99.90
3713;DHT22;1872;51.406;6.856;2022-10-17T06:30:51;16.30;99.90
3713;DHT22;1872;51.406;6.856;2022-10-17T06:33:18;16.40;99.90
3713;DHT22;1872;51.406;6.856;2022-10-17T06:35:53;16.40;99.90
3713;DHT22;1872;51.406;6.856;2022-10-17T06:38:19;16.40;99.90
3713;DHT22;1872;51.406;6.856;2022-10-17T06:40:45;16.50;99.90
3713;DHT22;1872;51.406;6.856;2022-10-17T06:43:11;16.50;99.90
3713;DHT22;1872;51.406;6.856;2022-10-17T06:45:40;16.60;99.90
3713;DHT22;1872;51.406;6.856;2022-10-17T06:48:06;16.70;99.90
3713;DHT22;1872;51.406;6.856;2022-10-17T06:50:32;16.80;99.90
3713;DHT22;1872;51.406;6.856;2022-10-17T06:52:58;16.80;99.90
3713;DHT22;1872;51.406;6.856;2022-10-17T06:55:23;17.00;99.90
3713;DHT22;1872;51.406;6.856;2022-10-17T06:57:49;17.10;99.90
3713;DHT22;1872;51.406;6.856;2022-10-17T07:00:16;17.10;99.90
3713;DHT22;1872;51.406;6.856;2022-10-17T07:02:42;17.10;99.90
3713;DHT22;1872;51.406;6.856;2022-10-17T07:05:08;17.10;99.90
3713;DHT22;1872;51.406;6.856;2022-10-17T07:07:34;17.20;99.90
3713;DHT22;1872;51.406;6.856;2022-10-17T07:10:00;17.30;99.90
3713;DHT22;1872;51.406;6.856;2022-10-17T07:12:28;17.30;99.90
3713;DHT22;1872;51.406;6.856;2022-10-17T07:14:53;17.40;99.90
3713;DHT22;1872;51.406;6.856;2022-10-17T07:17:19;17.40;99.90
3713;DHT22;1872;51.406;6.856;2022-10-17T07:19:45;17.50;99.90
3713;DHT22;1872;51.406;6.856;2022-10-17T07:22:11;17.50;99.90
3713;DHT22;1872;51.406;6.856;2022-10-17T07:24:37;17.50;99.90
3713;DHT22;1872;51.406;6.856;2022-10-17T07:27:03;17.50;99.90
3713;DHT22;1872;51.406;6.856;2022-10-17T07:29:28;17.60;99.90
3713;DHT22;1872;51.406;6.856;2022-10-17T07:31:54;17.70;99.90
3713;DHT22;1872;51.406;6.856;2022-10-17T07:34:19;17.80;99.90
3713;DHT22;1872;51.406;6.856;2022-10-17T07:36:46;17.90;99.90
3713;DHT22;1872;51.406;6.856;2022-10-17T07:39:12;18.00;99.90
3713;DHT22;1872;51.406;6.856;2022-10-17T07:41:38;18.00;99.90
3713;DHT22;1872;51.406;6.856;2022-10-17T07:44:04;18.20;99.90
3713;DHT22;1872;51.406;6.856;2022-10-17T07:46:30;18.20;99.90
3713;DHT22;1872;51.406;6.856;2022-10-17T07:48:56;18.30;99.90
3713;DHT22;1872;51.406;6.856;2022-10-17T07:51:21;18.30;99.90
3713;DHT22;1872;51.406;6.856;2022-10-17T07:53:47;18.40;99.90
3713;DHT22;1872;51.406;6.856;2022-10-17T07:56:13;18.60;99.90
3713;DHT22;1872;51.406;6.856;2022-10-17T07:58:39;18.60;99.90
3713;DHT22;1872;51.406;6.856;2022-10-17T08:01:07;18.60;99.90
3713;DHT22;1872;51.406;6.856;2022-10-17T08:03:35;18.70;99.90
3713;DHT22;1872;51.406;6.856;2022-10-17T08:06:02;18.80;99.90
3713;DHT22;1872;51.406;6.856;2022-10-17T08:08:28;18.80;99.90
3713;DHT22;1872;51.406;6.856;2022-10-17T08:11:01;18.80;99.90
3713;DHT22;1872;51.406;6.856;2022-10-17T08:13:27;18.90;99.90
3713;DHT22;1872;51.406;6.856;2022-10-17T08:15:52;19.00;99.90
3713;DHT22;1872;51.406;6.856;2022-10-17T08:18:18;19.10;99.90
3713;DHT22;1872;51.406;6.856;2022-10-17T08:20:44;19.20;99.90
3713;DHT22;1872;51.406;6.856;2022-10-17T08:23:10;19.30;99.90
3713;DHT22;1872;51.406;6.856;2022-10-17T08:25:38;19.30;99.90
3713;DHT22;1872;51.406;6.856;2022-10-17T08:28:05;19.40;99.90
3713;DHT22;1872;51.406;6.856;2022-10-17T08:30:32;19.40;99.90
3713;DHT22;1872;51.406;6.856;2022-10-17T08:32:57;19.30;99.90
3713;DHT22;1872;51.406;6.856;2022-10-17T08:35:24;19.30;99.90
3713;DHT22;1872;51.406;6.856;2022-10-17T08:37:50;19.30;99.90
3713;DHT22;1872;51.406;6.856;2022-10-17T08:40:27;19.30;99.90
3713;DHT22;1872;51.406;6.856;2022-10-17T08:43:06;19.30;99.90
3713;DHT22;1872;51.406;6.856;2022-10-17T08:48:11;19.40;99.90
3713;DHT22;1872;51.406;6.856;2022-10-17T08:50:42;19.50;99.90
3713;DHT22;1872;51.406;6.856;2022-10-17T08:55:47;19.70;99.90
3713;DHT22;1872;51.406;6.856;2022-10-17T08:58:17;19.70;99.90
3713;DHT22;1872;51.406;6.856;2022-10-17T09:01:01;19.70;99.90
3713;DHT22;1872;51.406;6.856;2022-10-17T09:03:42;19.70;99.90
3713;DHT22;1872;51.406;6.856;2022-10-17T09:06:38;19.80;99.90
3713;DHT22;1872;51.406;6.856;2022-10-17T09:17:57;19.80;99.90
3713;DHT22;1872;51.406;6.856;2022-10-17T09:20:29;19.80;99.90
3713;DHT22;1872;51.406;6.856;2022-10-17T09:23:04;19.80;99.90
3713;DHT22;1872;51.406;6.856;2022-10-17T09:25:45;19.90;99.90
3713;DHT22;1872;51.406;6.856;2022-10-17T09:28:22;20.00;99.90
3713;DHT22;1872;51.406;6.856;2022-10-17T09:33:48;20.10;99.90
3713;DHT22;1872;51.406;6.856;2022-10-17T09:36:31;20.20;99.90
3713;DHT22;1872;51.406;6.856;2022-10-17T09:39:00;20.20;99.90
3713;DHT22;1872;51.406;6.856;2022-10-17T09:41:39;20.20;99.90
3713;DHT22;1872;51.406;6.856;2022-10-17T09:44:22;20.10;99.90
3713;DHT22;1872;51.406;6.856;2022-10-17T09:47:03;20.00;99.90
3713;DHT22;1872;51.406;6.856;2022-10-17T09:49:35;19.90;99.90
3713;DHT22;1872;51.406;6.856;2022-10-17T09:52:04;19.80;99.90
3713;DHT22;1872;51.406;6.856;2022-10-17T09:55:00;19.80;99.90
3713;DHT22;1872;51.406;6.856;2022-10-17T09:57:27;19.80;99.90
3713;DHT22;1872;51.406;6.856;2022-10-17T10:00:03;19.70;99.90
3713;DHT22;1872;51.406;6.856;2022-10-17T10:02:29;19.70;99.90
3713;DHT22;1872;51.406;6.856;2022-10-17T10:05:18;19.70;99.90
3713;DHT22;1872;51.406;6.856;2022-10-17T10:08:03;19.70;99.90
3713;DHT22;1872;51.406;6.856;2022-10-17T10:10:29;19.70;99.90
3713;DHT22;1872;51.406;6.856;2022-10-17T10:15:38;19.60;99.90
3713;DHT22;1872;51.406;6.856;2022-10-17T10:23:31;19.50;99.90
3713;DHT22;1872;51.406;6.856;2022-10-17T10:26:00;19.40;99.90
3713;DHT22;1872;51.406;6.856;2022-10-17T10:28:34;19.40;99.90
3713;DHT22;1872;51.406;6.856;2022-10-17T10:31:07;19.40;99.90
3713;DHT22;1872;51.406;6.856;2022-10-17T10:33:36;19.40;99.90
3713;DHT22;1872;51.406;6.856;2022-10-17T10:36:05;19.40;99.90
3713;DHT22;1872;51.406;6.856;2022-10-17T10:38:32;19.40;99.90
3713;DHT22;1872;51.406;6.856;2022-10-17T10:41:09;19.50;99.90
3713;DHT22;1872;51.406;6.856;2022-10-17T10:43:41;19.50;99.90
3713;DHT22;1872;51.406;6.856;2022-10-17T10:46:20;19.50;99.90
3713;DHT22;1872;51.406;6.856;2022-10-17T10:48:51;19.60;99.90
3713;DHT22;1872;51.406;6.856;2022-10-17T10:51:22;19.60;99.90
3713;DHT22;1872;51.406;6.856;2022-10-17T10:56:30;19.60;99.90
3713;DHT22;1872;51.406;6.856;2022-10-17T11:01:56;19.60;99.90
3713;DHT22;1872;51.406;6.856;2022-10-17T11:07:11;19.50;99.90
3713;DHT22;1872;51.406;6.856;2022-10-17T11:12:25;19.40;99.90
3713;DHT22;1872;51.406;6.856;2022-10-17T11:15:15;19.40;99.90
3713;DHT22;1872;51.406;6.856;2022-10-17T11:18:06;19.30;99.90
3713;DHT22;1872;51.406;6.856;2022-10-17T11:20:37;19.30;99.90
3713;DHT22;1872;51.406;6.856;2022-10-17T11:25:40;19.30;99.90
3713;DHT22;1872;51.406;6.856;2022-10-17T11:28:13;19.30;99.90
3713;DHT22;1872;51.406;6.856;2022-10-17T11:30:52;19.30;99.90
3713;DHT22;1872;51.406;6.856;2022-10-17T11:33:31;19.30;99.90
3713;DHT22;1872;51.406;6.856;2022-10-17T11:36:04;19.30;99.90
3713;DHT22;1872;51.406;6.856;2022-10-17T11:38:38;19.30;99.90
3713;DHT22;1872;51.406;6.856;2022-10-17T11:41:11;19.30;99.90
3713;DHT22;1872;51.406;6.856;2022-10-17T11:43:44;19.30;99.90
3713;DHT22;1872;51.406;6.856;2022-10-17T11:46:23;19.30;99.90
3713;DHT22;1872;51.406;6.856;2022-10-17T11:49:29;19.30;99.90
3713;DHT22;1872;51.406;6.856;2022-10-17T11:52:10;19.30;99.90
3713;DHT22;1872;51.406;6.856;2022-10-17T11:54:44;19.30;99.90
3713;DHT22;1872;51.406;6.856;2022-10-17T12:05:37;19.50;99.90
3713;DHT22;1872;51.406;6.856;2022-10-17T12:08:11;19.50;99.90
3713;DHT22;1872;51.406;6.856;2022-10-17T12:18:42;19.40;99.90
3713;DHT22;1872;51.406;6.856;2022-10-17T12:21:08;19.40;99.90
3713;DHT22;1872;51.406;6.856;2022-10-17T12:23:34;19.30;99.90
3713;DHT22;1872;51.406;6.856;2022-10-17T12:26:03;19.30;99.90
3713;DHT22;1872;51.406;6.856;2022-10-17T12:31:15;19.30;99.90
3713;DHT22;1872;51.406;6.856;2022-10-17T12:33:48;19.30;99.90
3713;DHT22;1872;51.406;6.856;2022-10-17T12:36:35;19.30;99.90
3713;DHT22;1872;51.406;6.856;2022-10-17T12:46:56;19.20;99.90
3713;DHT22;1872;51.406;6.856;2022-10-17T12:52:49;19.10;99.90
3713;DHT22;1872;51.406;6.856;2022-10-17T12:55:17;19.10;99.90
3713;DHT22;1872;51.406;6.856;2022-10-17T13:02:40;19.00;99.90
3713;DHT22;1872;51.406;6.856;2022-10-17T13:05:10;18.90;99.90
3713;DHT22;1872;51.406;6.856;2022-10-17T13:07:40;18.90;99.90
3713;DHT22;1872;51.406;6.856;2022-10-17T13:10:19;18.90;99.90
3713;DHT22;1872;51.406;6.856;2022-10-17T13:12:46;18.90;99.90
3713;DHT22;1872;51.406;6.856;2022-10-17T13:15:17;19.00;99.90
3713;DHT22;1872;51.406;6.856;2022-10-17T13:17:43;18.90;99.90
3713;DHT22;1872;51.406;6.856;2022-10-17T13:20:21;18.90;99.90
3713;DHT22;1872;51.406;6.856;2022-10-17T13:22:49;18.90;99.90
3713;DHT22;1872;51.406;6.856;2022-10-17T13:25:17;18.90;99.90
3713;DHT22;1872;51.406;6.856;2022-10-17T13:27:45;18.90;99.90
3713;DHT22;1872;51.406;6.856;2022-10-17T13:32:49;18.90;99.90
3713;DHT22;1872;51.406;6.856;2022-10-17T13:35:22;18.90;99.90
3713;DHT22;1872;51.406;6.856;2022-10-17T13:37:49;18.80;99.90
3713;DHT22;1872;51.406;6.856;2022-10-17T13:40:18;18.80;99.90
3713;DHT22;1872;51.406;6.856;2022-10-17T13:42:45;18.80;99.90
3713;DHT22;1872;51.406;6.856;2022-10-17T13:45:38;18.80;99.90
3713;DHT22;1872;51.406;6.856;2022-10-17T13:48:06;18.80;99.90
3713;DHT22;1872;51.406;6.856;2022-10-17T13:50:41;18.80;99.90
3713;DHT22;1872;51.406;6.856;2022-10-17T13:58:20;18.80;99.90
3713;DHT22;1872;51.406;6.856;2022-10-17T14:00:47;18.90;99.90
3713;DHT22;1872;51.406;6.856;2022-10-17T14:03:16;18.90;99.90
3713;DHT22;1872;51.406;6.856;2022-10-17T14:06:02;18.90;99.90
3713;DHT22;1872;51.406;6.856;2022-10-17T14:08:28;19.00;99.90
3713;DHT22;1872;51.406;6.856;2022-10-17T14:10:56;19.10;99.90
3713;DHT22;1872;51.406;6.856;2022-10-17T14:13:24;19.00;99.90
3713;DHT22;1872;51.406;6.856;2022-10-17T14:15:53;19.10;99.90
3713;DHT22;1872;51.406;6.856;2022-10-17T14:18:27;19.20;99.90
3713;DHT22;1872;51.406;6.856;2022-10-17T14:20:53;19.20;99.90
3713;DHT22;1872;51.406;6.856;2022-10-17T14:23:40;19.30;99.90
3713;DHT22;1872;51.406;6.856;2022-10-17T14:26:33;19.30;99.90
3713;DHT22;1872;51.406;6.856;2022-10-17T14:29:05;19.20;99.90
3713;DHT22;1872;51.406;6.856;2022-10-17T14:31:34;19.20;99.90
3713;DHT22;1872;51.406;6.856;2022-10-17T14:34:03;19.30;99.90
3713;DHT22;1872;51.406;6.856;2022-10-17T14:36:37;19.30;99.90
3713;DHT22;1872;51.406;6.856;2022-10-17T14:39:07;19.30;99.90
3713;DHT22;1872;51.406;6.856;2022-10-17T14:41:34;19.30;99.90
3713;DHT22;1872;51.406;6.856;2022-10-17T14:44:06;19.40;99.90
3713;DHT22;1872;51.406;6.856;2022-10-17T14:46:34;19.40;99.90
3713;DHT22;1872;51.406;6.856;2022-10-17T14:49:16;19.50;99.90
3713;DHT22;1872;51.406;6.856;2022-10-17T14:54:44;19.50;99.90
3713;DHT22;1872;51.406;6.856;2022-10-17T14:59:43;19.50;99.90
3713;DHT22;1872;51.406;6.856;2022-10-17T15:02:09;19.50;99.90
3713;DHT22;1872;51.406;6.856;2022-10-17T15:04:35;19.50;99.90
3713;DHT22;1872;51.406;6.856;2022-10-17T15:07:00;19.50;99.90
3713;DHT22;1872;51.406;6.856;2022-10-17T15:09:26;19.50;99.90
3713;DHT22;1872;51.406;6.856;2022-10-17T15:11:54;19.50;99.90
3713;DHT22;1872;51.406;6.856;2022-10-17T15:14:21;19.50;99.90
3713;DHT22;1872;51.406;6.856;2022-10-17T15:16:46;19.50;99.90
3713;DHT22;1872;51.406;6.856;2022-10-17T15:19:12;19.50;99.90
3713;DHT22;1872;51.406;6.856;2022-10-17T15:21:38;19.50;99.90
3713;DHT22;1872;51.406;6.856;2022-10-17T15:24:04;19.50;99.90
3713;DHT22;1872;51.406;6.856;2022-10-17T15:26:31;19.50;99.90
3713;DHT22;1872;51.406;6.856;2022-10-17T15:28:58;19.40;99.90
3713;DHT22;1872;51.406;6.856;2022-10-17T15:31:26;19.30;99.90
3713;DHT22;1872;51.406;6.856;2022-10-17T15:33:52;19.30;99.90
3713;DHT22;1872;51.406;6.856;2022-10-17T15:36:20;19.20;99.90
3713;DHT22;1872;51.406;6.856;2022-10-17T15:38:48;19.10;99.90
3713;DHT22;1872;51.406;6.856;2022-10-17T15:41:14;19.00;99.90
3713;DHT22;1872;51.406;6.856;2022-10-17T15:43:40;18.90;99.90
3713;DHT22;1872;51.406;6.856;2022-10-17T15:46:11;18.80;99.90
3713;DHT22;1872;51.406;6.856;2022-10-17T15:48:38;18.80;99.90
3713;DHT22;1872;51.406;6.856;2022-10-17T15:51:03;18.80;99.90
3713;DHT22;1872;51.406;6.856;2022-10-17T15:53:29;18.80;99.90
3713;DHT22;1872;51.406;6.856;2022-10-17T15:55:54;18.70;99.90
3713;DHT22;1872;51.406;6.856;2022-10-17T15:58:20;18.70;99.90
3713;DHT22;1872;51.406;6.856;2022-10-17T16:00:46;18.70;99.90
3713;DHT22;1872;51.406;6.856;2022-10-17T16:03:12;18.70;99.90
3713;DHT22;1872;51.406;6.856;2022-10-17T16:05:38;18.60;99.90
3713;DHT22;1872;51.406;6.856;2022-10-17T16:08:04;18.60;99.90
3713;DHT22;1872;51.406;6.856;2022-10-17T16:10:30;18.60;99.90
3713;DHT22;1872;51.406;6.856;2022-10-17T16:12:56;18.60;99.90
3713;DHT22;1872;51.406;6.856;2022-10-17T16:15:23;18.60;99.90
3713;DHT22;1872;51.406;6.856;2022-10-17T16:17:50;18.60;99.90
3713;DHT22;1872;51.406;6.856;2022-10-17T16:20:17;18.60;99.90
3713;DHT22;1872;51.406;6.856;2022-10-17T16:22:43;18.50;99.90
3713;DHT22;1872;51.406;6.856;2022-10-17T16:25:21;18.60;99.90
3713;DHT22;1872;51.406;6.856;2022-10-17T16:27:49;18.60;99.90
3713;DHT22;1872;51.406;6.856;2022-10-17T16:30:15;18.50;99.90
3713;DHT22;1872;51.406;6.856;2022-10-17T16:32:42;18.50;99.90
3713;DHT22;1872;51.406;6.856;2022-10-17T16:35:08;18.50;99.90
3713;DHT22;1872;51.406;6.856;2022-10-17T16:37:35;18.50;99.90
3713;DHT22;1872;51.406;6.856;2022-10-17T16:40:01;18.50;99.90
3713;DHT22;1872;51.406;6.856;2022-10-17T16:42:28;18.40;99.90
3713;DHT22;1872;51.406;6.856;2022-10-17T16:44:54;18.40;99.90
3713;DHT22;1872;51.406;6.856;2022-10-17T16:47:20;18.40;99.90
3713;DHT22;1872;51.406;6.856;2022-10-17T16:49:46;18.30;99.90
3713;DHT22;1872;51.406;6.856;2022-10-17T16:52:12;18.30;99.90
3713;DHT22;1872;51.406;6.856;2022-10-17T16:54:38;18.20;99.90
3713;DHT22;1872;51.406;6.856;2022-10-17T16:57:04;18.10;99.90
3713;DHT22;1872;51.406;6.856;2022-10-17T16:59:29;18.00;99.90
3713;DHT22;1872;51.406;6.856;2022-10-17T17:01:55;18.00;99.90
3713;DHT22;1872;51.406;6.856;2022-10-17T17:04:21;18.00;99.90
3713;DHT22;1872;51.406;6.856;2022-10-17T17:06:47;17.90;99.90
3713;DHT22;1872;51.406;6.856;2022-10-17T17:09:13;17.80;99.90
3713;DHT22;1872;51.406;6.856;2022-10-17T17:11:38;17.80;99.90
3713;DHT22;1872;51.406;6.856;2022-10-17T17:14:07;17.70;99.90
3713;DHT22;1872;51.406;6.856;2022-10-17T17:16:34;17.70;99.90
3713;DHT22;1872;51.406;6.856;2022-10-17T17:19:06;17.70;99.90
3713;DHT22;1872;51.406;6.856;2022-10-17T17:21:33;17.60;99.90
3713;DHT22;1872;51.406;6.856;2022-10-17T17:24:00;17.60;99.90
3713;DHT22;1872;51.406;6.856;2022-10-17T17:26:29;17.50;99.90
3713;DHT22;1872;51.406;6.856;2022-10-17T17:28:57;17.50;99.90
3713;DHT22;1872;51.406;6.856;2022-10-17T17:31:26;17.50;99.90
3713;DHT22;1872;51.406;6.856;2022-10-17T17:33:53;17.50;99.90
3713;DHT22;1872;51.406;6.856;2022-10-17T17:36:21;17.50;99.90
3713;DHT22;1872;51.406;6.856;2022-10-17T17:38:48;17.40;99.90
3713;DHT22;1872;51.406;6.856;2022-10-17T17:41:16;17.40;99.90
3713;DHT22;1872;51.406;6.856;2022-10-17T17:43:43;17.40;99.90
3713;DHT22;1872;51.406;6.856;2022-10-17T17:46:09;17.30;99.90
3713;DHT22;1872;51.406;6.856;2022-10-17T17:48:40;17.30;99.90
3713;DHT22;1872;51.406;6.856;2022-10-17T17:51:07;17.30;99.90
3713;DHT22;1872;51.406;6.856;2022-10-17T17:53:33;17.30;99.90
3713;DHT22;1872;51.406;6.856;2022-10-17T17:56:13;17.30;99.90
3713;DHT22;1872;51.406;6.856;2022-10-17T17:58:40;17.30;99.90
3713;DHT22;1872;51.406;6.856;2022-10-17T18:01:13;17.30;99.90
3713;DHT22;1872;51.406;6.856;2022-10-17T18:03:42;17.30;99.90
3713;DHT22;1872;51.406;6.856;2022-10-17T18:06:08;17.20;99.90
3713;DHT22;1872;51.406;6.856;2022-10-17T18:08:34;17.20;99.90
3713;DHT22;1872;51.406;6.856;2022-10-17T18:11:01;17.20;99.90